createdAt,value
2018-06-29T00:01:15.911Z,47.10
2018-06-29T00:03:43.995Z,47.10
2018-06-29T00:08:39.958Z,47.60
2018-06-29T00:13:35.903Z,47.60
2018-06-29T00:16:03.983Z,47.60
2018-06-29T00:18:32.061Z,47.80
2018-06-29T00:21:00.132Z,47.90
2018-06-29T00:23:28.195Z,47.60
2018-06-29T00:25:56.316Z,47.70
2018-06-29T00:28:24.406Z,47.90
2018-06-29T00:30:52.591Z,47.80
2018-06-29T00:33:20.677Z,48.00
2018-06-29T00:35:48.758Z,47.90
2018-06-29T00:38:16.863Z,47.90
2018-06-29T00:40:44.964Z,48.10
2018-06-29T00:43:13.034Z,48.30
2018-06-29T00:45:41.103Z,48.40
2018-06-29T00:48:09.192Z,48.40
2018-06-29T00:50:37.254Z,48.20
2018-06-29T00:53:05.411Z,48.40
2018-06-29T00:55:33.551Z,48.20
2018-06-29T00:58:01.651Z,48.10
2018-06-29T01:00:29.711Z,48.50
2018-06-29T01:02:57.779Z,48.50
2018-06-29T01:05:25.839Z,48.60
2018-06-29T01:07:53.941Z,48.50
2018-06-29T01:10:22.029Z,48.60
2018-06-29T01:12:50.120Z,48.60
2018-06-29T01:15:18.222Z,48.60
2018-06-29T01:17:46.282Z,48.70
2018-06-29T01:22:42.223Z,49.30
2018-06-29T01:25:10.314Z,48.80
2018-06-29T01:27:38.387Z,48.90
2018-06-29T01:30:06.818Z,48.80
2018-06-29T01:32:34.885Z,48.90
2018-06-29T01:35:02.972Z,49.00
2018-06-29T01:37:31.063Z,48.90
2018-06-29T01:42:27.117Z,49.00
2018-06-29T01:44:55.187Z,49.00
2018-06-29T01:47:23.263Z,49.10
2018-06-29T01:52:19.340Z,49.10
2018-06-29T01:54:47.295Z,49.30
2018-06-29T01:57:15.379Z,49.40
2018-06-29T01:59:43.454Z,49.40
2018-06-29T02:02:11.539Z,49.20
2018-06-29T02:04:39.638Z,49.30
2018-06-29T02:07:07.707Z,49.40
2018-06-29T02:09:35.798Z,50.00
2018-06-29T02:12:03.874Z,50.00
2018-06-29T02:14:31.978Z,49.60
2018-06-29T02:17:00.119Z,49.60
2018-06-29T02:19:28.170Z,49.80
2018-06-29T02:21:56.263Z,49.60
2018-06-29T02:24:24.359Z,49.60
2018-06-29T02:26:52.442Z,49.70
2018-06-29T02:29:20.561Z,49.80
2018-06-29T02:31:48.628Z,49.80
2018-06-29T02:34:16.718Z,49.90
2018-06-29T02:36:44.832Z,50.00
2018-06-29T02:39:13.665Z,49.90
2018-06-29T02:41:42.276Z,50.00
2018-06-29T02:44:10.351Z,50.10
2018-06-29T02:46:38.432Z,50.00
2018-06-29T02:49:06.680Z,50.10
2018-06-29T02:51:35.217Z,50.20
2018-06-29T02:54:03.444Z,50.20
2018-06-29T02:56:31.552Z,50.20
2018-06-29T02:58:59.623Z,50.20
2018-06-29T03:01:27.719Z,50.30
2018-06-29T03:03:55.839Z,50.30
2018-06-29T03:06:23.940Z,50.30
2018-06-29T03:08:52.031Z,50.30
2018-06-29T03:11:20.141Z,50.20
2018-06-29T03:13:48.236Z,50.40
2018-06-29T03:16:16.332Z,50.40
2018-06-29T03:18:44.448Z,50.30
2018-06-29T03:21:12.567Z,50.50
2018-06-29T03:23:40.851Z,50.40
2018-06-29T03:26:09.144Z,50.60
2018-06-29T03:28:37.243Z,50.60
2018-06-29T03:31:05.373Z,50.60
2018-06-29T03:33:33.472Z,50.50
2018-06-29T03:36:01.567Z,50.80
2018-06-29T03:38:29.673Z,51.20
2018-06-29T03:40:57.784Z,50.80
2018-06-29T03:43:25.895Z,50.80
2018-06-29T03:45:54.016Z,50.80
2018-06-29T03:48:22.102Z,50.90
2018-06-29T03:50:50.196Z,51.40
2018-06-29T03:53:18.327Z,50.90
2018-06-29T03:55:46.413Z,51.00
2018-06-29T03:58:14.511Z,51.20
2018-06-29T04:00:42.599Z,51.40
2018-06-29T04:03:10.725Z,51.60
2018-06-29T04:05:38.791Z,51.30
2018-06-29T04:08:06.887Z,51.40
2018-06-29T04:10:35.004Z,51.70
2018-06-29T04:13:03.123Z,51.80
2018-06-29T04:15:31.261Z,51.90
2018-06-29T04:17:59.325Z,51.80
2018-06-29T04:22:55.329Z,52.10
2018-06-29T04:25:23.455Z,52.30
2018-06-29T04:27:51.564Z,52.20
2018-06-29T04:30:19.689Z,52.50
2018-06-29T04:32:47.832Z,52.90
2018-06-29T04:35:15.891Z,53.10
2018-06-29T04:37:43.979Z,53.00
2018-06-29T04:40:12.102Z,53.90
2018-06-29T04:42:40.195Z,54.20
2018-06-29T04:47:36.187Z,53.70
2018-06-29T04:52:32.341Z,53.60
2018-06-29T04:55:00.460Z,53.30
2018-06-29T04:57:28.556Z,53.10
2018-06-29T04:59:56.663Z,53.20
2018-06-29T05:04:52.643Z,53.10
2018-06-29T05:07:20.768Z,53.40
2018-06-29T05:12:16.772Z,53.20
2018-06-29T05:14:44.867Z,53.10
2018-06-29T05:17:12.964Z,52.70
2018-06-29T05:19:41.056Z,53.00
2018-06-29T05:22:09.178Z,53.60
2018-06-29T05:24:37.268Z,53.90
2018-06-29T05:27:05.375Z,53.80
2018-06-29T05:29:33.503Z,53.50
2018-06-29T05:32:01.631Z,52.60
2018-06-29T05:34:29.732Z,52.40
2018-06-29T05:36:57.864Z,52.10
2018-06-29T05:39:25.959Z,52.00
2018-06-29T05:41:54.152Z,52.50
2018-06-29T05:44:22.232Z,53.20
2018-06-29T05:46:50.370Z,52.80
2018-06-29T05:49:18.513Z,51.80
2018-06-29T05:51:46.665Z,52.20
2018-06-29T05:54:14.807Z,51.90
2018-06-29T05:56:42.956Z,51.30
2018-06-29T05:59:11.071Z,50.70
2018-06-29T06:01:39.236Z,51.50
2018-06-29T06:04:07.338Z,51.60
2018-06-29T06:06:35.471Z,52.10
2018-06-29T06:09:05.573Z,50.90
2018-06-29T06:11:33.679Z,51.00
2018-06-29T06:14:01.807Z,51.50
2018-06-29T06:16:29.921Z,50.90
2018-06-29T06:19:09.580Z,51.00
2018-06-29T06:21:38.651Z,50.90
2018-06-29T06:24:06.736Z,51.80
2018-06-29T06:26:34.858Z,51.60
2018-06-29T06:29:02.947Z,51.80
2018-06-29T06:31:31.045Z,50.90
2018-06-29T06:33:59.164Z,51.50
2018-06-29T06:36:27.284Z,51.50
2018-06-29T06:38:55.384Z,51.00
2018-06-29T06:41:23.480Z,51.00
2018-06-29T06:43:51.713Z,49.90
2018-06-29T06:48:47.754Z,50.00
2018-06-29T06:51:15.876Z,50.00
2018-06-29T06:53:44.106Z,49.70
2018-06-29T06:58:40.047Z,50.30
2018-06-29T07:01:08.183Z,49.80
2018-06-29T07:03:36.284Z,49.70
2018-06-29T07:06:04.388Z,49.60
2018-06-29T07:08:32.455Z,49.40
2018-06-29T07:11:00.584Z,49.10
2018-06-29T07:13:28.685Z,49.70
2018-06-29T07:15:56.800Z,49.20
2018-06-29T07:18:24.908Z,49.00
2018-06-29T07:20:53.036Z,48.80
2018-06-29T07:23:21.136Z,48.60
2018-06-29T07:25:49.252Z,48.00
2018-06-29T07:30:45.255Z,47.40
2018-06-29T07:33:13.351Z,47.30
2018-06-29T07:35:41.480Z,47.00
2018-06-29T07:38:09.696Z,47.00
2018-06-29T07:40:37.823Z,47.20
2018-06-29T07:43:05.916Z,47.60
2018-06-29T07:45:34.041Z,47.60
2018-06-29T07:48:02.158Z,47.30
2018-06-29T07:50:30.254Z,47.20
2018-06-29T07:52:58.431Z,47.10
2018-06-29T07:55:26.451Z,47.00
2018-06-29T07:57:54.657Z,46.90
2018-06-29T08:00:22.775Z,46.60
2018-06-29T08:02:50.896Z,46.60
2018-06-29T08:05:19.000Z,47.00
2018-06-29T08:07:47.100Z,46.70
2018-06-29T08:10:15.186Z,46.60
2018-06-29T08:12:43.276Z,47.10
2018-06-29T08:15:11.419Z,46.40
2018-06-29T08:17:39.547Z,46.20
2018-06-29T08:20:07.647Z,46.10
2018-06-29T08:22:35.752Z,45.80
2018-06-29T08:25:13.896Z,45.90
2018-06-29T08:27:42.207Z,45.90
2018-06-29T08:30:11.221Z,46.00
2018-06-29T08:32:39.336Z,46.00
2018-06-29T08:35:08.120Z,45.70
2018-06-29T08:37:36.740Z,45.50
2018-06-29T08:40:05.498Z,45.70
2018-06-29T08:42:33.583Z,45.60
2018-06-29T08:45:01.704Z,45.00
2018-06-29T08:47:29.805Z,44.90
2018-06-29T08:49:57.931Z,45.10
2018-06-29T08:52:26.101Z,45.10
2018-06-29T08:54:54.263Z,44.90
2018-06-29T08:57:22.331Z,44.90
2018-06-29T08:59:50.446Z,44.70
2018-06-29T09:02:18.563Z,44.70
2018-06-29T09:07:14.560Z,44.50
2018-06-29T09:09:42.667Z,44.70
2018-06-29T09:12:10.748Z,44.40
2018-06-29T09:14:38.861Z,44.60
2018-06-29T09:17:06.947Z,44.20
2018-06-29T09:19:35.059Z,44.30
2018-06-29T09:22:03.159Z,44.10
2018-06-29T09:24:31.255Z,44.00
2018-06-29T09:26:59.355Z,43.90
2018-06-29T09:29:27.459Z,43.50
2018-06-29T09:31:55.568Z,43.20
2018-06-29T09:34:23.664Z,43.20
2018-06-29T09:36:51.747Z,43.00
2018-06-29T09:39:19.877Z,43.20
2018-06-29T09:41:47.978Z,42.80
2018-06-29T09:44:16.099Z,42.90
2018-06-29T09:46:44.228Z,43.00
2018-06-29T09:49:12.341Z,42.10
2018-06-29T09:51:40.419Z,41.50
2018-06-29T09:54:08.709Z,40.40
2018-06-29T09:56:36.737Z,40.00
2018-06-29T09:59:05.412Z,39.10
2018-06-29T10:01:33.505Z,38.70
2018-06-29T10:04:01.624Z,38.60
2018-06-29T10:06:29.733Z,38.70
2018-06-29T10:08:57.807Z,38.60
2018-06-29T10:11:25.920Z,39.40
2018-06-29T10:13:54.016Z,39.80
2018-06-29T10:16:22.143Z,39.80
2018-06-29T10:18:50.251Z,39.70
2018-06-29T10:21:18.351Z,39.20
2018-06-29T10:23:46.460Z,39.70
2018-06-29T10:26:14.764Z,39.50
2018-06-29T10:28:42.936Z,40.30
2018-06-29T10:31:11.040Z,39.00
2018-06-29T10:33:39.139Z,38.60
2018-06-29T10:36:07.299Z,38.80
2018-06-29T10:38:35.350Z,39.00
2018-06-29T10:41:03.452Z,38.70
2018-06-29T10:43:31.538Z,38.10
2018-06-29T10:45:59.634Z,38.50
2018-06-29T10:48:27.736Z,38.00
2018-06-29T10:50:55.827Z,37.30
2018-06-29T10:53:23.913Z,37.30
2018-06-29T10:55:52.031Z,37.30
2018-06-29T10:58:20.123Z,37.50
2018-06-29T11:00:48.363Z,38.00
2018-06-29T11:03:16.431Z,38.10
2018-06-29T11:05:44.544Z,38.20
2018-06-29T11:13:08.415Z,38.60
2018-06-29T11:15:36.512Z,37.70
2018-06-29T11:20:32.480Z,38.00
2018-06-29T11:23:00.595Z,37.30
2018-06-29T11:25:28.704Z,37.60
2018-06-29T11:27:56.825Z,37.10
2018-06-29T11:30:24.981Z,36.70
2018-06-29T11:32:53.011Z,36.40
2018-06-29T11:35:21.092Z,36.30
2018-06-29T11:40:17.049Z,37.00
2018-06-29T11:42:45.147Z,37.20
2018-06-29T11:47:41.123Z,36.60
2018-06-29T11:50:09.282Z,36.40
2018-06-29T11:52:37.368Z,36.80
2018-06-29T11:57:33.336Z,36.20
2018-06-29T12:00:01.450Z,36.10
2018-06-29T12:04:57.444Z,36.90
2018-06-29T12:09:53.455Z,35.70
2018-06-29T12:12:21.603Z,36.00
2018-06-29T12:14:49.714Z,36.60
2018-06-29T12:17:17.801Z,36.60
2018-06-29T12:19:45.889Z,36.70
2018-06-29T12:22:13.992Z,35.60
2018-06-29T12:24:42.084Z,35.20
2018-06-29T12:27:10.184Z,35.00
2018-06-29T12:29:38.288Z,35.20
2018-06-29T12:32:06.386Z,34.30
2018-06-29T12:34:43.597Z,34.00
2018-06-29T12:37:11.731Z,34.30
2018-06-29T12:39:39.872Z,33.80
2018-06-29T12:42:08.020Z,33.50
2018-06-29T12:44:36.112Z,34.40
2018-06-29T12:47:04.210Z,33.60
2018-06-29T12:49:32.335Z,33.80
2018-06-29T12:52:00.423Z,33.90
2018-06-29T12:54:28.503Z,34.20
2018-06-29T13:01:59.172Z,34.50
2018-06-29T13:04:27.259Z,34.60
2018-06-29T13:06:55.371Z,34.80
2018-06-29T13:09:23.484Z,34.50
2018-06-29T13:11:51.604Z,34.40
2018-06-29T13:14:19.724Z,34.80
2018-06-29T13:19:15.752Z,34.30
2018-06-29T13:21:43.911Z,34.10
2018-06-29T13:24:11.963Z,34.60
2018-06-29T13:26:40.068Z,34.70
2018-06-29T13:29:08.182Z,34.40
2018-06-29T13:31:36.312Z,34.00
2018-06-29T13:34:04.428Z,34.00
2018-06-29T13:36:32.515Z,33.80
2018-06-29T13:39:00.606Z,34.70
2018-06-29T13:41:28.761Z,34.50
2018-06-29T13:43:56.876Z,34.30
2018-06-29T13:46:24.947Z,34.80
2018-06-29T13:48:53.055Z,34.50
2018-06-29T13:51:21.155Z,34.40
2018-06-29T13:53:49.260Z,34.60
2018-06-29T13:56:17.364Z,34.50
2018-06-29T13:58:45.466Z,34.60
2018-06-29T14:03:41.440Z,34.20
2018-06-29T14:06:09.575Z,34.30
2018-06-29T14:08:37.716Z,35.20
2018-06-29T14:11:05.814Z,34.40
2018-06-29T14:13:33.921Z,34.50
2018-06-29T14:16:02.014Z,34.20
2018-06-29T14:18:30.092Z,34.40
2018-06-29T14:20:58.205Z,34.70
2018-06-29T14:23:26.328Z,34.50
2018-06-29T14:25:54.431Z,34.50
2018-06-29T14:28:22.539Z,34.30
2018-06-29T14:30:57.013Z,34.20
2018-06-29T14:33:25.095Z,34.30
2018-06-29T14:35:53.226Z,34.40
2018-06-29T14:38:21.335Z,35.00
2018-06-29T14:40:49.554Z,35.00
2018-06-29T14:43:17.619Z,34.10
2018-06-29T14:45:45.712Z,34.70
2018-06-29T14:48:13.888Z,34.60
2018-06-29T14:50:41.987Z,35.20
2018-06-29T14:53:10.103Z,35.10
2018-06-29T14:55:38.208Z,35.10
2018-06-29T14:58:06.327Z,35.90
2018-06-29T15:00:34.437Z,36.50
2018-06-29T15:03:02.636Z,37.00
2018-06-29T15:05:30.681Z,36.80
2018-06-29T15:07:58.776Z,36.70
2018-06-29T15:10:26.876Z,36.80
2018-06-29T15:12:54.986Z,36.70
2018-06-29T15:15:23.080Z,36.50
2018-06-29T15:17:51.182Z,36.40
2018-06-29T15:20:19.364Z,36.60
2018-06-29T15:22:49.531Z,36.50
2018-06-29T15:25:18.367Z,36.70
2018-06-29T15:27:46.453Z,36.40
2018-06-29T15:30:14.572Z,36.70
2018-06-29T15:32:42.796Z,36.90
2018-06-29T15:35:10.928Z,37.40
2018-06-29T15:37:39.034Z,37.80
2018-06-29T15:40:08.284Z,38.70
2018-06-29T15:42:36.379Z,38.40
2018-06-29T15:45:04.996Z,38.50
2018-06-29T15:47:33.103Z,38.60
2018-06-29T15:50:01.214Z,38.70
2018-06-29T15:52:29.324Z,39.00
2018-06-29T15:54:58.231Z,38.90
2018-06-29T15:57:26.311Z,39.00
2018-06-29T15:59:54.440Z,39.20
2018-06-29T16:02:22.533Z,39.20
2018-06-29T16:04:51.962Z,39.30
2018-06-29T16:07:20.059Z,39.50
2018-06-29T16:09:48.155Z,39.40
2018-06-29T16:14:53.260Z,39.70
2018-06-29T16:17:21.335Z,39.80
2018-06-29T16:19:49.475Z,39.80
2018-06-29T16:22:17.625Z,39.50
2018-06-29T16:24:45.832Z,38.90
2018-06-29T16:27:13.936Z,39.10
2018-06-29T16:29:42.031Z,39.20
2018-06-29T16:32:10.132Z,39.20
2018-06-29T16:34:38.324Z,39.40
2018-06-29T16:37:06.412Z,38.70
2018-06-29T16:39:34.507Z,38.80
2018-06-29T16:42:02.601Z,36.50
2018-06-29T16:44:30.736Z,36.20
2018-06-29T16:46:58.824Z,35.50
2018-06-29T16:49:26.916Z,35.40
2018-06-29T16:51:55.005Z,35.80
2018-06-29T16:54:23.092Z,36.80
2018-06-29T16:56:51.160Z,37.80
2018-06-29T16:59:19.248Z,38.20
2018-06-29T17:01:47.352Z,39.90
2018-06-29T17:04:15.460Z,40.20
2018-06-29T17:06:43.571Z,40.90
2018-06-29T17:09:11.672Z,41.40
2018-06-29T17:11:39.779Z,41.80
2018-06-29T17:14:07.876Z,41.80
2018-06-29T17:16:35.968Z,41.70
2018-06-29T17:19:04.078Z,41.80
2018-06-29T17:21:32.192Z,42.10
2018-06-29T17:24:00.357Z,42.40
2018-06-29T17:26:28.428Z,42.00
2018-06-29T17:28:56.523Z,42.00
2018-06-29T17:33:52.623Z,42.50
2018-06-29T17:36:20.639Z,42.60
2018-06-29T17:38:48.735Z,42.80
2018-06-29T17:41:16.836Z,43.60
2018-06-29T17:43:44.957Z,43.00
2018-06-29T17:46:13.063Z,43.00
2018-06-29T17:48:41.231Z,43.10
2018-06-29T17:51:09.361Z,43.40
2018-06-29T17:56:05.412Z,43.40
2018-06-29T17:58:33.516Z,43.50
2018-06-29T18:01:01.627Z,43.60
2018-06-29T18:03:29.780Z,43.60
2018-06-29T18:05:57.865Z,43.30
2018-06-29T18:08:25.976Z,43.20
2018-06-29T18:10:54.081Z,43.50
2018-06-29T18:13:22.244Z,43.60
2018-06-29T18:15:50.259Z,43.80
2018-06-29T18:18:18.348Z,43.80
2018-06-29T18:20:46.462Z,43.90
2018-06-29T18:23:14.567Z,43.90
2018-06-29T18:25:42.687Z,44.70
2018-06-29T18:28:11.104Z,43.90
2018-06-29T18:30:39.216Z,44.00
2018-06-29T18:33:11.560Z,44.10
2018-06-29T18:35:39.636Z,44.20
2018-06-29T18:38:07.748Z,44.40
2018-06-29T18:40:35.851Z,44.70
2018-06-29T18:43:03.991Z,45.00
2018-06-29T18:45:32.115Z,45.30
2018-06-29T18:48:00.240Z,45.70
2018-06-29T18:50:28.452Z,46.00
2018-06-29T18:52:56.549Z,46.10
2018-06-29T18:55:24.699Z,46.40
2018-06-29T18:57:52.812Z,46.50
2018-06-29T19:00:20.997Z,46.50
2018-06-29T19:05:16.985Z,47.20
2018-06-29T19:12:40.860Z,47.10
2018-06-29T19:15:09.007Z,47.10
2018-06-29T19:17:37.090Z,47.60
2018-06-29T19:20:05.236Z,47.20
2018-06-29T19:22:33.324Z,47.20
2018-06-29T19:25:01.427Z,47.60
2018-06-29T19:27:29.563Z,47.50
2018-06-29T19:29:57.641Z,47.60
2018-06-29T19:32:25.728Z,47.80
2018-06-29T19:34:53.853Z,48.10
2018-06-29T19:37:21.955Z,48.40
2018-06-29T19:39:50.058Z,48.30
2018-06-29T19:42:18.171Z,48.30
2018-06-29T19:44:46.315Z,48.30
2018-06-29T19:47:14.467Z,48.10
2018-06-29T19:49:42.595Z,48.20
2018-06-29T19:52:10.728Z,48.20
2018-06-29T19:57:06.996Z,48.60
2018-06-29T19:59:35.096Z,48.40
2018-06-29T20:02:03.221Z,49.20
2018-06-29T20:06:59.212Z,49.20
2018-06-29T20:11:55.237Z,49.30
2018-06-29T20:14:23.360Z,49.60
2018-06-29T20:16:51.430Z,49.40
2018-06-29T20:19:19.532Z,49.70
2018-06-29T20:21:47.630Z,49.20
2018-06-29T20:24:15.740Z,49.50
2018-06-29T20:26:43.860Z,49.60
2018-06-29T20:29:11.976Z,49.60
2018-06-29T20:34:08.084Z,49.70
2018-06-29T20:41:34.255Z,49.80
2018-06-29T20:44:02.365Z,49.60
2018-06-29T20:46:30.460Z,49.80
2018-06-29T20:48:58.573Z,49.70
2018-06-29T20:51:26.677Z,49.70
2018-06-29T20:53:54.866Z,49.90
2018-06-29T20:56:22.922Z,49.90
2018-06-29T20:58:51.040Z,50.50
2018-06-29T21:01:19.127Z,50.50
2018-06-29T21:03:47.209Z,50.80
2018-06-29T21:06:15.312Z,51.40
2018-06-29T21:08:43.439Z,51.00
2018-06-29T21:11:11.587Z,51.40
2018-06-29T21:13:39.728Z,51.60
2018-06-29T21:16:07.834Z,51.50
2018-06-29T21:18:35.906Z,51.80
2018-06-29T21:21:03.992Z,51.80
2018-06-29T21:23:32.136Z,51.80
2018-06-29T21:26:00.239Z,51.80
2018-06-29T21:28:28.413Z,51.80
2018-06-29T21:30:56.516Z,52.00
2018-06-29T21:33:24.602Z,52.40
2018-06-29T21:35:52.716Z,51.80
2018-06-29T21:38:20.799Z,51.60
2018-06-29T21:40:49.117Z,52.00
2018-06-29T21:43:17.889Z,51.40
2018-06-29T21:45:45.968Z,51.60
2018-06-29T21:50:41.932Z,51.60
2018-06-29T21:53:10.020Z,51.60
2018-06-29T21:55:38.168Z,51.70
2018-06-29T21:58:07.187Z,51.70
2018-06-29T22:00:40.239Z,51.70
2018-06-29T22:03:09.051Z,51.80
2018-06-29T22:05:37.923Z,51.80
2018-06-29T22:08:06.641Z,51.80
2018-06-29T22:10:34.768Z,51.80
2018-06-29T22:15:37.480Z,51.70
2018-06-29T22:18:05.785Z,51.60
2018-06-29T22:20:33.887Z,51.70
2018-06-29T22:23:01.972Z,51.70
2018-06-29T22:27:57.983Z,51.60
2018-06-29T22:30:26.055Z,51.70
2018-06-29T22:35:22.119Z,51.80
2018-06-29T22:37:50.228Z,51.80
2018-06-29T22:40:18.437Z,51.40
2018-06-29T22:42:46.515Z,51.80
2018-06-29T22:45:14.623Z,51.70
2018-06-29T22:47:42.692Z,51.80
2018-06-29T22:50:10.976Z,51.80
2018-06-29T22:52:39.128Z,51.70
2018-06-29T22:55:07.228Z,51.70
2018-06-29T22:57:35.331Z,51.70
2018-06-29T23:00:03.455Z,51.60
2018-06-29T23:02:31.559Z,51.60
2018-06-29T23:04:59.686Z,51.80
2018-06-29T23:07:27.799Z,51.70
2018-06-29T23:09:55.916Z,51.70
2018-06-29T23:12:30.703Z,51.60
2018-06-29T23:14:58.847Z,51.80
2018-06-29T23:17:26.954Z,51.60
2018-06-29T23:19:55.039Z,51.80
2018-06-29T23:22:23.131Z,51.90
2018-06-29T23:24:51.277Z,51.90
2018-06-29T23:27:19.532Z,51.70
2018-06-29T23:29:47.636Z,51.50
2018-06-29T23:32:22.298Z,51.60
2018-06-29T23:34:50.419Z,52.30
2018-06-29T23:37:18.536Z,51.70
2018-06-29T23:39:46.631Z,51.70
2018-06-29T23:42:14.756Z,51.70
2018-06-29T23:44:42.926Z,51.70
2018-06-29T23:47:11.043Z,51.60
2018-06-29T23:49:39.140Z,51.60
2018-06-29T23:52:07.287Z,51.70
2018-06-29T23:54:35.376Z,51.60
2018-06-29T23:57:03.502Z,51.60
